sensor_id;sensor_type;location;lat;lon;timestamp;P1;durP1;ratioP1;P2;durP2;ratioP2
4049;SDS011;2039;50.894;6.888;2023-03-14T00:02:58;69.32;;;5.50;;
4049;SDS011;2039;50.894;6.888;2023-03-14T00:05:53;69.63;;;5.22;;
4049;SDS011;2039;50.894;6.888;2023-03-14T00:08:50;65.50;;;5.82;;
4049;SDS011;2039;50.894;6.888;2023-03-14T00:12:00;73.55;;;6.32;;
4049;SDS011;2039;50.894;6.888;2023-03-14T00:14:42;67.22;;;5.57;;
4049;SDS011;2039;50.894;6.888;2023-03-14T00:17:27;67.13;;;5.45;;
4049;SDS011;2039;50.894;6.888;2023-03-14T00:20:07;70.07;;;6.00;;
4049;SDS011;2039;50.894;6.888;2023-03-14T00:22:50;74.18;;;7.78;;
4049;SDS011;2039;50.894;6.888;2023-03-14T00:25:30;72.40;;;6.30;;
4049;SDS011;2039;50.894;6.888;2023-03-14T00:28:19;68.53;;;5.38;;
4049;SDS011;2039;50.894;6.888;2023-03-14T00:31:26;71.03;;;6.80;;
4049;SDS011;2039;50.894;6.888;2023-03-14T00:33:57;70.05;;;5.90;;
4049;SDS011;2039;50.894;6.888;2023-03-14T00:36:32;72.03;;;6.65;;
4049;SDS011;2039;50.894;6.888;2023-03-14T00:39:04;67.00;;;5.70;;
4049;SDS011;2039;50.894;6.888;2023-03-14T00:41:38;71.90;;;6.50;;
4049;SDS011;2039;50.894;6.888;2023-03-14T00:44:36;69.68;;;5.30;;
4049;SDS011;2039;50.894;6.888;2023-03-14T00:47:20;65.70;;;5.38;;
4049;SDS011;2039;50.894;6.888;2023-03-14T00:49:54;67.60;;;5.13;;
4049;SDS011;2039;50.894;6.888;2023-03-14T00:52:44;68.47;;;5.85;;
4049;SDS011;2039;50.894;6.888;2023-03-14T00:58:34;67.75;;;5.15;;
4049;SDS011;2039;50.894;6.888;2023-03-14T01:01:22;68.60;;;6.50;;
4049;SDS011;2039;50.894;6.888;2023-03-14T01:04:00;70.53;;;7.45;;
4049;SDS011;2039;50.894;6.888;2023-03-14T01:06:39;66.53;;;6.13;;
4049;SDS011;2039;50.894;6.888;2023-03-14T01:12:11;69.72;;;7.80;;
4049;SDS011;2039;50.894;6.888;2023-03-14T01:14:49;67.15;;;5.95;;
4049;SDS011;2039;50.894;6.888;2023-03-14T01:17:20;72.00;;;7.47;;
4049;SDS011;2039;50.894;6.888;2023-03-14T01:19:45;69.97;;;10.70;;
4049;SDS011;2039;50.894;6.888;2023-03-14T01:22:11;70.77;;;8.67;;
4049;SDS011;2039;50.894;6.888;2023-03-14T01:24:37;74.90;;;7.73;;
4049;SDS011;2039;50.894;6.888;2023-03-14T01:27:03;66.97;;;7.80;;
4049;SDS011;2039;50.894;6.888;2023-03-14T01:29:31;64.90;;;6.15;;
4049;SDS011;2039;50.894;6.888;2023-03-14T01:32:05;68.60;;;5.90;;
4049;SDS011;2039;50.894;6.888;2023-03-14T01:34:41;69.35;;;8.13;;
4049;SDS011;2039;50.894;6.888;2023-03-14T01:37:12;67.32;;;9.48;;
4049;SDS011;2039;50.894;6.888;2023-03-14T01:42:45;72.40;;;11.90;;
4049;SDS011;2039;50.894;6.888;2023-03-14T01:48:37;72.10;;;13.30;;
4049;SDS011;2039;50.894;6.888;2023-03-14T01:51:26;67.03;;;10.80;;
4049;SDS011;2039;50.894;6.888;2023-03-14T01:54:20;69.63;;;11.82;;
4049;SDS011;2039;50.894;6.888;2023-03-14T02:00:11;71.68;;;15.95;;
4049;SDS011;2039;50.894;6.888;2023-03-14T02:03:18;72.32;;;16.95;;
4049;SDS011;2039;50.894;6.888;2023-03-14T02:09:53;73.07;;;17.55;;
4049;SDS011;2039;50.894;6.888;2023-03-14T02:16:31;73.90;;;18.42;;
4049;SDS011;2039;50.894;6.888;2023-03-14T02:19:34;69.97;;;18.42;;
4049;SDS011;2039;50.894;6.888;2023-03-14T02:37:01;69.55;;;14.77;;
4049;SDS011;2039;50.894;6.888;2023-03-14T02:40:15;69.68;;;14.43;;
4049;SDS011;2039;50.894;6.888;2023-03-14T02:46:35;71.93;;;16.40;;
4049;SDS011;2039;50.894;6.888;2023-03-14T02:57:04;77.00;;;19.10;;
4049;SDS011;2039;50.894;6.888;2023-03-14T03:06:58;82.63;;;20.27;;
4049;SDS011;2039;50.894;6.888;2023-03-14T03:23:39;73.95;;;23.35;;
4049;SDS011;2039;50.894;6.888;2023-03-14T03:37:04;73.90;;;21.00;;
4049;SDS011;2039;50.894;6.888;2023-03-14T03:40:08;79.18;;;22.65;;
4049;SDS011;2039;50.894;6.888;2023-03-14T03:42:57;80.70;;;17.48;;
4049;SDS011;2039;50.894;6.888;2023-03-14T03:45:55;75.88;;;17.95;;
4049;SDS011;2039;50.894;6.888;2023-03-14T03:48:57;75.25;;;18.20;;
4049;SDS011;2039;50.894;6.888;2023-03-14T03:55:11;69.53;;;6.15;;
4049;SDS011;2039;50.894;6.888;2023-03-14T03:58:01;73.47;;;9.57;;
4049;SDS011;2039;50.894;6.888;2023-03-14T04:01:02;77.82;;;13.57;;
4049;SDS011;2039;50.894;6.888;2023-03-14T04:06:39;73.22;;;12.63;;
4049;SDS011;2039;50.894;6.888;2023-03-14T04:09:36;69.90;;;10.77;;
4049;SDS011;2039;50.894;6.888;2023-03-14T04:12:15;72.03;;;9.45;;
4049;SDS011;2039;50.894;6.888;2023-03-14T04:15:00;70.80;;;9.82;;
4049;SDS011;2039;50.894;6.888;2023-03-14T04:17:39;74.85;;;15.43;;
4049;SDS011;2039;50.894;6.888;2023-03-14T04:20:13;71.82;;;18.52;;
4049;SDS011;2039;50.894;6.888;2023-03-14T04:22:47;77.28;;;19.73;;
4049;SDS011;2039;50.894;6.888;2023-03-14T04:25:13;73.00;;;20.10;;
4049;SDS011;2039;50.894;6.888;2023-03-14T04:27:41;71.03;;;17.83;;
4049;SDS011;2039;50.894;6.888;2023-03-14T04:30:07;72.30;;;18.17;;
4049;SDS011;2039;50.894;6.888;2023-03-14T04:32:33;68.80;;;12.38;;
4049;SDS011;2039;50.894;6.888;2023-03-14T04:35:01;71.67;;;14.43;;
4049;SDS011;2039;50.894;6.888;2023-03-14T04:40:40;71.50;;;13.75;;
4049;SDS011;2039;50.894;6.888;2023-03-14T04:43:17;71.95;;;23.13;;
4049;SDS011;2039;50.894;6.888;2023-03-14T04:45:43;77.20;;;23.80;;
4049;SDS011;2039;50.894;6.888;2023-03-14T04:48:09;72.97;;;24.98;;
4049;SDS011;2039;50.894;6.888;2023-03-14T04:50:35;75.35;;;23.92;;
4049;SDS011;2039;50.894;6.888;2023-03-14T04:53:01;71.87;;;21.27;;
4049;SDS011;2039;50.894;6.888;2023-03-14T04:55:27;75.47;;;26.70;;
4049;SDS011;2039;50.894;6.888;2023-03-14T04:58:01;72.53;;;22.90;;
4049;SDS011;2039;50.894;6.888;2023-03-14T05:00:51;72.22;;;21.77;;
4049;SDS011;2039;50.894;6.888;2023-03-14T05:03:50;75.88;;;23.20;;
4049;SDS011;2039;50.894;6.888;2023-03-14T05:06:27;74.63;;;20.25;;
4049;SDS011;2039;50.894;6.888;2023-03-14T05:09:32;71.45;;;20.98;;
4049;SDS011;2039;50.894;6.888;2023-03-14T05:12:15;72.20;;;21.58;;
4049;SDS011;2039;50.894;6.888;2023-03-14T05:14:46;70.13;;;20.52;;
4049;SDS011;2039;50.894;6.888;2023-03-14T05:17:15;72.00;;;21.93;;
4049;SDS011;2039;50.894;6.888;2023-03-14T05:19:43;72.13;;;21.83;;
4049;SDS011;2039;50.894;6.888;2023-03-14T05:22:12;71.45;;;22.15;;
4049;SDS011;2039;50.894;6.888;2023-03-14T05:24:46;71.63;;;23.25;;
4049;SDS011;2039;50.894;6.888;2023-03-14T05:27:17;70.82;;;20.40;;
4049;SDS011;2039;50.894;6.888;2023-03-14T05:29:57;71.18;;;20.90;;
4049;SDS011;2039;50.894;6.888;2023-03-14T05:32:23;72.00;;;21.30;;
4049;SDS011;2039;50.894;6.888;2023-03-14T05:35:02;72.68;;;21.23;;
4049;SDS011;2039;50.894;6.888;2023-03-14T05:37:33;72.00;;;19.67;;
4049;SDS011;2039;50.894;6.888;2023-03-14T05:40:02;70.80;;;18.88;;
4049;SDS011;2039;50.894;6.888;2023-03-14T05:42:33;70.68;;;19.88;;
4049;SDS011;2039;50.894;6.888;2023-03-14T05:45:05;70.03;;;15.63;;
4049;SDS011;2039;50.894;6.888;2023-03-14T05:47:37;69.80;;;17.98;;
4049;SDS011;2039;50.894;6.888;2023-03-14T05:50:06;72.00;;;24.02;;
4049;SDS011;2039;50.894;6.888;2023-03-14T05:52:35;70.95;;;19.77;;
4049;SDS011;2039;50.894;6.888;2023-03-14T05:55:01;67.45;;;11.88;;
4049;SDS011;2039;50.894;6.888;2023-03-14T05:57:30;72.63;;;21.55;;
4049;SDS011;2039;50.894;6.888;2023-03-14T05:59:58;67.93;;;14.27;;
4049;SDS011;2039;50.894;6.888;2023-03-14T06:02:27;69.88;;;19.63;;
4049;SDS011;2039;50.894;6.888;2023-03-14T06:04:53;70.10;;;19.17;;
4049;SDS011;2039;50.894;6.888;2023-03-14T06:07:20;71.88;;;22.13;;
4049;SDS011;2039;50.894;6.888;2023-03-14T06:09:49;73.80;;;24.02;;
4049;SDS011;2039;50.894;6.888;2023-03-14T06:12:31;74.20;;;20.73;;
4049;SDS011;2039;50.894;6.888;2023-03-14T06:15:05;70.57;;;19.55;;
4049;SDS011;2039;50.894;6.888;2023-03-14T06:17:37;72.95;;;23.90;;
4049;SDS011;2039;50.894;6.888;2023-03-14T06:20:02;72.50;;;23.00;;
4049;SDS011;2039;50.894;6.888;2023-03-14T06:22:31;71.10;;;22.38;;
4049;SDS011;2039;50.894;6.888;2023-03-14T06:25:09;70.97;;;21.63;;
4049;SDS011;2039;50.894;6.888;2023-03-14T06:27:58;71.18;;;21.67;;
4049;SDS011;2039;50.894;6.888;2023-03-14T06:30:49;71.10;;;21.70;;
4049;SDS011;2039;50.894;6.888;2023-03-14T06:33:18;69.83;;;17.70;;
4049;SDS011;2039;50.894;6.888;2023-03-14T06:35:48;70.00;;;20.05;;
4049;SDS011;2039;50.894;6.888;2023-03-14T06:38:14;71.07;;;22.98;;
4049;SDS011;2039;50.894;6.888;2023-03-14T06:40:40;69.67;;;17.70;;
4049;SDS011;2039;50.894;6.888;2023-03-14T06:43:10;70.22;;;16.77;;
4049;SDS011;2039;50.894;6.888;2023-03-14T06:45:36;68.27;;;14.03;;
4049;SDS011;2039;50.894;6.888;2023-03-14T06:48:04;69.28;;;13.63;;
4049;SDS011;2039;50.894;6.888;2023-03-14T06:50:30;66.50;;;7.67;;
4049;SDS011;2039;50.894;6.888;2023-03-14T06:53:41;66.80;;;6.97;;
4049;SDS011;2039;50.894;6.888;2023-03-14T06:55:48;68.15;;;7.70;;
4049;SDS011;2039;50.894;6.888;2023-03-14T06:58:17;66.83;;;5.37;;
4049;SDS011;2039;50.894;6.888;2023-03-14T07:00:43;65.88;;;5.03;;
4049;SDS011;2039;50.894;6.888;2023-03-14T07:03:11;65.30;;;4.95;;
4049;SDS011;2039;50.894;6.888;2023-03-14T07:05:41;66.53;;;4.85;;
4049;SDS011;2039;50.894;6.888;2023-03-14T07:08:10;65.30;;;5.18;;
4049;SDS011;2039;50.894;6.888;2023-03-14T07:10:35;67.30;;;4.10;;
4049;SDS011;2039;50.894;6.888;2023-03-14T07:13:01;65.60;;;5.25;;
4049;SDS011;2039;50.894;6.888;2023-03-14T07:15:27;64.90;;;4.53;;
4049;SDS011;2039;50.894;6.888;2023-03-14T07:17:53;64.97;;;3.90;;
4049;SDS011;2039;50.894;6.888;2023-03-14T07:20:19;64.80;;;4.70;;
4049;SDS011;2039;50.894;6.888;2023-03-14T07:22:54;65.20;;;4.95;;
4049;SDS011;2039;50.894;6.888;2023-03-14T07:25:22;65.10;;;3.90;;
4049;SDS011;2039;50.894;6.888;2023-03-14T07:27:51;64.85;;;4.78;;
4049;SDS011;2039;50.894;6.888;2023-03-14T07:30:17;65.68;;;4.22;;
4049;SDS011;2039;50.894;6.888;2023-03-14T07:32:43;64.87;;;4.30;;
4049;SDS011;2039;50.894;6.888;2023-03-14T07:35:09;65.10;;;5.07;;
4049;SDS011;2039;50.894;6.888;2023-03-14T07:37:34;64.93;;;4.40;;
4049;SDS011;2039;50.894;6.888;2023-03-14T07:40:00;64.67;;;3.67;;
4049;SDS011;2039;50.894;6.888;2023-03-14T07:42:26;64.97;;;5.30;;
4049;SDS011;2039;50.894;6.888;2023-03-14T07:44:59;64.50;;;4.30;;
4049;SDS011;2039;50.894;6.888;2023-03-14T07:47:34;64.95;;;4.15;;
4049;SDS011;2039;50.894;6.888;2023-03-14T07:50:00;64.75;;;4.72;;
4049;SDS011;2039;50.894;6.888;2023-03-14T07:52:32;66.75;;;6.38;;
4049;SDS011;2039;50.894;6.888;2023-03-14T07:55:03;65.30;;;4.47;;
4049;SDS011;2039;50.894;6.888;2023-03-14T07:57:32;66.85;;;5.72;;
4049;SDS011;2039;50.894;6.888;2023-03-14T08:00:01;65.87;;;5.43;;
4049;SDS011;2039;50.894;6.888;2023-03-14T08:02:28;69.38;;;5.85;;
4049;SDS011;2039;50.894;6.888;2023-03-14T08:04:58;65.05;;;5.40;;
4049;SDS011;2039;50.894;6.888;2023-03-14T08:07:24;65.53;;;4.18;;
4049;SDS011;2039;50.894;6.888;2023-03-14T08:09:59;68.13;;;5.45;;
4049;SDS011;2039;50.894;6.888;2023-03-14T08:12:27;65.27;;;4.50;;
4049;SDS011;2039;50.894;6.888;2023-03-14T08:17:34;67.07;;;4.68;;
4049;SDS011;2039;50.894;6.888;2023-03-14T08:20:01;66.55;;;5.75;;
4049;SDS011;2039;50.894;6.888;2023-03-14T08:22:28;72.25;;;5.28;;
4049;SDS011;2039;50.894;6.888;2023-03-14T08:24:53;68.70;;;4.87;;
4049;SDS011;2039;50.894;6.888;2023-03-14T08:27:22;66.68;;;5.15;;
4049;SDS011;2039;50.894;6.888;2023-03-14T08:29:50;66.75;;;3.75;;
4049;SDS011;2039;50.894;6.888;2023-03-14T08:32:25;63.88;;;3.17;;
4049;SDS011;2039;50.894;6.888;2023-03-14T08:34:53;64.25;;;3.55;;
4049;SDS011;2039;50.894;6.888;2023-03-14T08:37:22;64.68;;;4.10;;
4049;SDS011;2039;50.894;6.888;2023-03-14T08:39:51;66.38;;;4.05;;
4049;SDS011;2039;50.894;6.888;2023-03-14T08:42:27;64.97;;;3.22;;
4049;SDS011;2039;50.894;6.888;2023-03-14T08:45:03;64.20;;;3.60;;
4049;SDS011;2039;50.894;6.888;2023-03-14T08:47:29;68.63;;;3.30;;
4049;SDS011;2039;50.894;6.888;2023-03-14T08:50:01;64.88;;;3.28;;
4049;SDS011;2039;50.894;6.888;2023-03-14T08:52:29;64.35;;;3.53;;
4049;SDS011;2039;50.894;6.888;2023-03-14T08:54:55;64.75;;;3.67;;
4049;SDS011;2039;50.894;6.888;2023-03-14T08:57:21;64.37;;;3.83;;
4049;SDS011;2039;50.894;6.888;2023-03-14T08:59:52;63.85;;;3.60;;
4049;SDS011;2039;50.894;6.888;2023-03-14T09:02:24;64.07;;;3.13;;
4049;SDS011;2039;50.894;6.888;2023-03-14T09:04:50;64.05;;;3.47;;
4049;SDS011;2039;50.894;6.888;2023-03-14T09:07:16;63.67;;;3.00;;
4049;SDS011;2039;50.894;6.888;2023-03-14T09:09:43;63.70;;;3.25;;
4049;SDS011;2039;50.894;6.888;2023-03-14T09:12:09;63.97;;;4.17;;
4049;SDS011;2039;50.894;6.888;2023-03-14T09:14:34;63.77;;;3.43;;
4049;SDS011;2039;50.894;6.888;2023-03-14T09:17:03;64.20;;;4.20;;
4049;SDS011;2039;50.894;6.888;2023-03-14T09:19:29;64.43;;;4.45;;
4049;SDS011;2039;50.894;6.888;2023-03-14T09:21:57;64.47;;;3.92;;
4049;SDS011;2039;50.894;6.888;2023-03-14T09:24:23;64.43;;;4.00;;
4049;SDS011;2039;50.894;6.888;2023-03-14T09:26:54;64.72;;;4.65;;
4049;SDS011;2039;50.894;6.888;2023-03-14T09:29:39;68.05;;;6.38;;
4049;SDS011;2039;50.894;6.888;2023-03-14T09:32:07;65.00;;;6.65;;
4049;SDS011;2039;50.894;6.888;2023-03-14T09:34:33;65.28;;;3.80;;
4049;SDS011;2039;50.894;6.888;2023-03-14T09:36:59;64.17;;;4.67;;
4049;SDS011;2039;50.894;6.888;2023-03-14T09:39:25;67.47;;;11.63;;
4049;SDS011;2039;50.894;6.888;2023-03-14T09:41:51;65.37;;;5.33;;
4049;SDS011;2039;50.894;6.888;2023-03-14T09:44:35;64.43;;;5.95;;
4049;SDS011;2039;50.894;6.888;2023-03-14T09:47:09;65.68;;;5.53;;
4049;SDS011;2039;50.894;6.888;2023-03-14T09:49:41;66.15;;;9.05;;
4049;SDS011;2039;50.894;6.888;2023-03-14T09:52:12;66.60;;;6.05;;
4049;SDS011;2039;50.894;6.888;2023-03-14T09:54:47;64.85;;;5.70;;
4049;SDS011;2039;50.894;6.888;2023-03-14T09:57:24;65.28;;;5.90;;
4049;SDS011;2039;50.894;6.888;2023-03-14T09:59:52;67.03;;;9.13;;
4049;SDS011;2039;50.894;6.888;2023-03-14T10:02:22;67.43;;;10.98;;
4049;SDS011;2039;50.894;6.888;2023-03-14T10:04:50;80.43;;;36.72;;
4049;SDS011;2039;50.894;6.888;2023-03-14T10:07:18;69.22;;;17.30;;
4049;SDS011;2039;50.894;6.888;2023-03-14T10:09:49;73.57;;;27.15;;
4049;SDS011;2039;50.894;6.888;2023-03-14T10:12:16;73.25;;;24.05;;
4049;SDS011;2039;50.894;6.888;2023-03-14T10:14:47;80.03;;;35.28;;
4049;SDS011;2039;50.894;6.888;2023-03-14T10:17:15;77.10;;;28.75;;
4049;SDS011;2039;50.894;6.888;2023-03-14T10:19:50;82.75;;;38.35;;
4049;SDS011;2039;50.894;6.888;2023-03-14T10:22:24;70.50;;;20.65;;
4049;SDS011;2039;50.894;6.888;2023-03-14T10:24:59;71.22;;;22.13;;
4049;SDS011;2039;50.894;6.888;2023-03-14T10:27:34;70.93;;;19.75;;
4049;SDS011;2039;50.894;6.888;2023-03-14T10:30:05;72.40;;;25.52;;
4049;SDS011;2039;50.894;6.888;2023-03-14T10:32:36;71.65;;;24.00;;
4049;SDS011;2039;50.894;6.888;2023-03-14T10:37:32;72.07;;;23.70;;
4049;SDS011;2039;50.894;6.888;2023-03-14T10:39:58;72.47;;;26.10;;
4049;SDS011;2039;50.894;6.888;2023-03-14T10:42:39;71.28;;;21.85;;
4049;SDS011;2039;50.894;6.888;2023-03-14T10:45:29;73.80;;;26.25;;
4049;SDS011;2039;50.894;6.888;2023-03-14T10:48:19;72.22;;;19.05;;
4049;SDS011;2039;50.894;6.888;2023-03-14T10:50:57;72.35;;;24.00;;
4049;SDS011;2039;50.894;6.888;2023-03-14T10:56:23;70.95;;;21.05;;
4049;SDS011;2039;50.894;6.888;2023-03-14T10:58:51;73.05;;;26.75;;
4049;SDS011;2039;50.894;6.888;2023-03-14T11:06:55;72.35;;;22.17;;
4049;SDS011;2039;50.894;6.888;2023-03-14T11:12:05;71.28;;;18.25;;
4049;SDS011;2039;50.894;6.888;2023-03-14T11:15:00;69.57;;;17.80;;
4049;SDS011;2039;50.894;6.888;2023-03-14T11:20:09;75.85;;;22.60;;
4049;SDS011;2039;50.894;6.888;2023-03-14T11:22:41;74.40;;;25.33;;
4049;SDS011;2039;50.894;6.888;2023-03-14T11:28:21;72.50;;;25.00;;
4049;SDS011;2039;50.894;6.888;2023-03-14T11:31:16;71.43;;;22.58;;
4049;SDS011;2039;50.894;6.888;2023-03-14T11:36:39;72.15;;;21.55;;
4049;SDS011;2039;50.894;6.888;2023-03-14T11:39:16;71.55;;;17.42;;
4049;SDS011;2039;50.894;6.888;2023-03-14T11:41:45;70.85;;;16.30;;
4049;SDS011;2039;50.894;6.888;2023-03-14T11:44:22;68.40;;;8.88;;
4049;SDS011;2039;50.894;6.888;2023-03-14T11:47:06;66.53;;;5.80;;
4049;SDS011;2039;50.894;6.888;2023-03-14T11:52:23;65.90;;;9.48;;
4049;SDS011;2039;50.894;6.888;2023-03-14T11:57:47;74.00;;;16.63;;
4049;SDS011;2039;50.894;6.888;2023-03-14T12:11:02;68.93;;;14.65;;
4049;SDS011;2039;50.894;6.888;2023-03-14T12:13:45;71.78;;;20.45;;
4049;SDS011;2039;50.894;6.888;2023-03-14T12:18:49;72.55;;;24.92;;
4049;SDS011;2039;50.894;6.888;2023-03-14T12:21:15;72.68;;;23.63;;
4049;SDS011;2039;50.894;6.888;2023-03-14T12:23:43;73.75;;;25.38;;
4049;SDS011;2039;50.894;6.888;2023-03-14T12:26:18;73.15;;;24.10;;
4049;SDS011;2039;50.894;6.888;2023-03-14T12:29:09;78.15;;;31.67;;
4049;SDS011;2039;50.894;6.888;2023-03-14T12:31:44;73.40;;;22.42;;
4049;SDS011;2039;50.894;6.888;2023-03-14T12:42:03;68.85;;;15.68;;
4049;SDS011;2039;50.894;6.888;2023-03-14T12:49:42;69.85;;;18.10;;
4049;SDS011;2039;50.894;6.888;2023-03-14T12:52:14;67.85;;;14.50;;
4049;SDS011;2039;50.894;6.888;2023-03-14T13:01:05;68.03;;;11.60;;
4049;SDS011;2039;50.894;6.888;2023-03-14T13:03:39;73.07;;;16.25;;
4049;SDS011;2039;50.894;6.888;2023-03-14T13:06:10;69.72;;;15.93;;
4049;SDS011;2039;50.894;6.888;2023-03-14T13:08:38;68.32;;;15.13;;
4049;SDS011;2039;50.894;6.888;2023-03-14T13:11:07;70.28;;;13.85;;
4049;SDS011;2039;50.894;6.888;2023-03-14T13:13:44;68.18;;;13.23;;
4049;SDS011;2039;50.894;6.888;2023-03-14T13:16:16;67.65;;;10.60;;
4049;SDS011;2039;50.894;6.888;2023-03-14T13:18:45;71.97;;;14.98;;
4049;SDS011;2039;50.894;6.888;2023-03-14T13:21:17;69.85;;;18.38;;
4049;SDS011;2039;50.894;6.888;2023-03-14T13:24:45;71.88;;;21.25;;
4049;SDS011;2039;50.894;6.888;2023-03-14T13:26:45;75.07;;;18.42;;
4049;SDS011;2039;50.894;6.888;2023-03-14T13:29:15;70.20;;;18.30;;
4049;SDS011;2039;50.894;6.888;2023-03-14T13:31:49;70.53;;;15.43;;
4049;SDS011;2039;50.894;6.888;2023-03-14T13:34:17;67.78;;;9.63;;
4049;SDS011;2039;50.894;6.888;2023-03-14T13:36:43;66.27;;;7.97;;
4049;SDS011;2039;50.894;6.888;2023-03-14T13:39:10;71.13;;;9.45;;
4049;SDS011;2039;50.894;6.888;2023-03-14T13:41:45;68.93;;;11.93;;
4049;SDS011;2039;50.894;6.888;2023-03-14T13:44:21;70.68;;;12.63;;
4049;SDS011;2039;50.894;6.888;2023-03-14T13:47:18;80.10;;;31.00;;
4049;SDS011;2039;50.894;6.888;2023-03-14T13:49:46;68.97;;;13.80;;
4049;SDS011;2039;50.894;6.888;2023-03-14T13:52:34;69.95;;;10.63;;
4049;SDS011;2039;50.894;6.888;2023-03-14T13:55:02;72.07;;;14.95;;
4049;SDS011;2039;50.894;6.888;2023-03-14T13:57:42;73.43;;;9.77;;
4049;SDS011;2039;50.894;6.888;2023-03-14T14:00:19;68.03;;;9.68;;
4049;SDS011;2039;50.894;6.888;2023-03-14T14:02:45;73.75;;;10.57;;
4049;SDS011;2039;50.894;6.888;2023-03-14T14:05:12;71.22;;;10.70;;
4049;SDS011;2039;50.894;6.888;2023-03-14T14:07:39;73.82;;;11.60;;
4049;SDS011;2039;50.894;6.888;2023-03-14T14:10:08;71.93;;;11.32;;
4049;SDS011;2039;50.894;6.888;2023-03-14T14:12:38;85.55;;;12.57;;
4049;SDS011;2039;50.894;6.888;2023-03-14T14:15:12;77.35;;;11.75;;
4049;SDS011;2039;50.894;6.888;2023-03-14T14:17:43;78.30;;;12.05;;
4049;SDS011;2039;50.894;6.888;2023-03-14T14:23:07;83.97;;;12.95;;
4049;SDS011;2039;50.894;6.888;2023-03-14T14:25:36;79.50;;;11.25;;
4049;SDS011;2039;50.894;6.888;2023-03-14T14:28:15;73.57;;;10.02;;
4049;SDS011;2039;50.894;6.888;2023-03-14T14:30:45;81.00;;;14.20;;
4049;SDS011;2039;50.894;6.888;2023-03-14T14:33:16;72.13;;;12.30;;
4049;SDS011;2039;50.894;6.888;2023-03-14T14:35:42;73.13;;;13.27;;
4049;SDS011;2039;50.894;6.888;2023-03-14T14:38:16;76.00;;;12.75;;
4049;SDS011;2039;50.894;6.888;2023-03-14T14:40:46;86.78;;;13.15;;
4049;SDS011;2039;50.894;6.888;2023-03-14T14:43:16;79.47;;;12.18;;
4049;SDS011;2039;50.894;6.888;2023-03-14T14:45:51;70.25;;;10.40;;
4049;SDS011;2039;50.894;6.888;2023-03-14T14:48:20;77.07;;;14.52;;
4049;SDS011;2039;50.894;6.888;2023-03-14T14:50:54;73.50;;;10.95;;
4049;SDS011;2039;50.894;6.888;2023-03-14T14:53:45;70.22;;;7.55;;
4049;SDS011;2039;50.894;6.888;2023-03-14T14:56:19;76.72;;;8.00;;
4049;SDS011;2039;50.894;6.888;2023-03-14T14:58:50;71.72;;;6.15;;
4049;SDS011;2039;50.894;6.888;2023-03-14T15:01:24;74.60;;;7.90;;
4049;SDS011;2039;50.894;6.888;2023-03-14T15:03:55;72.68;;;7.65;;
4049;SDS011;2039;50.894;6.888;2023-03-14T15:06:21;69.20;;;9.57;;
4049;SDS011;2039;50.894;6.888;2023-03-14T15:08:52;69.40;;;6.45;;
4049;SDS011;2039;50.894;6.888;2023-03-14T15:11:20;71.75;;;6.60;;
4049;SDS011;2039;50.894;6.888;2023-03-14T15:13:47;72.82;;;7.65;;
4049;SDS011;2039;50.894;6.888;2023-03-14T15:16:15;69.82;;;6.20;;
4049;SDS011;2039;50.894;6.888;2023-03-14T15:18:43;77.93;;;7.13;;
4049;SDS011;2039;50.894;6.888;2023-03-14T15:21:10;77.95;;;6.35;;
4049;SDS011;2039;50.894;6.888;2023-03-14T15:23:36;74.37;;;6.00;;
4049;SDS011;2039;50.894;6.888;2023-03-14T15:26:02;68.40;;;6.20;;
4049;SDS011;2039;50.894;6.888;2023-03-14T15:28:30;69.22;;;5.95;;
4049;SDS011;2039;50.894;6.888;2023-03-14T15:30:56;76.57;;;6.67;;
4049;SDS011;2039;50.894;6.888;2023-03-14T15:33:24;81.57;;;6.80;;
4049;SDS011;2039;50.894;6.888;2023-03-14T15:35:50;90.25;;;7.00;;
4049;SDS011;2039;50.894;6.888;2023-03-14T15:38:18;77.28;;;6.22;;
4049;SDS011;2039;50.894;6.888;2023-03-14T15:40:46;80.70;;;6.32;;
4049;SDS011;2039;50.894;6.888;2023-03-14T15:43:12;76.95;;;6.75;;
4049;SDS011;2039;50.894;6.888;2023-03-14T15:45:41;78.22;;;7.38;;
4049;SDS011;2039;50.894;6.888;2023-03-14T15:48:09;70.20;;;8.27;;
4049;SDS011;2039;50.894;6.888;2023-03-14T15:50:41;77.65;;;8.15;;
4049;SDS011;2039;50.894;6.888;2023-03-14T15:53:08;72.65;;;6.07;;
4049;SDS011;2039;50.894;6.888;2023-03-14T15:55:33;70.30;;;5.53;;
4049;SDS011;2039;50.894;6.888;2023-03-14T15:57:59;74.20;;;6.50;;
4049;SDS011;2039;50.894;6.888;2023-03-14T16:00:29;77.40;;;8.10;;
4049;SDS011;2039;50.894;6.888;2023-03-14T16:02:58;73.70;;;8.65;;
4049;SDS011;2039;50.894;6.888;2023-03-14T16:05:24;74.10;;;7.47;;
4049;SDS011;2039;50.894;6.888;2023-03-14T16:07:49;76.43;;;8.40;;
4049;SDS011;2039;50.894;6.888;2023-03-14T16:10:15;74.30;;;8.70;;
4049;SDS011;2039;50.894;6.888;2023-03-14T16:12:41;71.77;;;8.70;;
4049;SDS011;2039;50.894;6.888;2023-03-14T16:15:08;73.60;;;8.13;;
4049;SDS011;2039;50.894;6.888;2023-03-14T16:17:34;71.45;;;8.15;;
4049;SDS011;2039;50.894;6.888;2023-03-14T16:20:02;76.50;;;9.32;;
4049;SDS011;2039;50.894;6.888;2023-03-14T16:22:29;77.55;;;7.72;;
4049;SDS011;2039;50.894;6.888;2023-03-14T16:25:01;77.38;;;9.73;;
4049;SDS011;2039;50.894;6.888;2023-03-14T16:27:28;74.10;;;9.43;;
4049;SDS011;2039;50.894;6.888;2023-03-14T16:29:55;80.22;;;9.55;;
4049;SDS011;2039;50.894;6.888;2023-03-14T16:32:22;78.35;;;9.55;;
4049;SDS011;2039;50.894;6.888;2023-03-14T16:34:47;76.90;;;8.60;;
4049;SDS011;2039;50.894;6.888;2023-03-14T16:37:13;86.30;;;10.57;;
4049;SDS011;2039;50.894;6.888;2023-03-14T16:39:39;75.13;;;9.43;;
4049;SDS011;2039;50.894;6.888;2023-03-14T16:42:04;73.87;;;7.73;;
4049;SDS011;2039;50.894;6.888;2023-03-14T16:44:30;70.97;;;7.27;;
4049;SDS011;2039;50.894;6.888;2023-03-14T16:46:56;72.03;;;7.03;;
4049;SDS011;2039;50.894;6.888;2023-03-14T16:49:21;71.87;;;7.23;;
4049;SDS011;2039;50.894;6.888;2023-03-14T16:51:47;72.20;;;7.27;;
4049;SDS011;2039;50.894;6.888;2023-03-14T16:54:13;75.60;;;7.57;;
4049;SDS011;2039;50.894;6.888;2023-03-14T16:56:38;91.77;;;9.47;;
4049;SDS011;2039;50.894;6.888;2023-03-14T16:59:04;70.00;;;6.00;;
4049;SDS011;2039;50.894;6.888;2023-03-14T17:01:31;69.97;;;4.35;;
4049;SDS011;2039;50.894;6.888;2023-03-14T17:03:56;68.90;;;5.00;;
4049;SDS011;2039;50.894;6.888;2023-03-14T17:06:23;76.03;;;11.03;;
4049;SDS011;2039;50.894;6.888;2023-03-14T17:08:51;70.65;;;5.85;;
4049;SDS011;2039;50.894;6.888;2023-03-14T17:11:17;69.20;;;5.60;;
4049;SDS011;2039;50.894;6.888;2023-03-14T17:13:43;68.20;;;5.30;;
4049;SDS011;2039;50.894;6.888;2023-03-14T17:16:09;74.50;;;6.47;;
4049;SDS011;2039;50.894;6.888;2023-03-14T17:18:35;67.27;;;5.53;;
4049;SDS011;2039;50.894;6.888;2023-03-14T17:21:02;66.32;;;4.50;;
4049;SDS011;2039;50.894;6.888;2023-03-14T17:23:28;69.20;;;4.95;;
4049;SDS011;2039;50.894;6.888;2023-03-14T17:25:55;68.78;;;4.80;;
4049;SDS011;2039;50.894;6.888;2023-03-14T17:28:21;70.00;;;4.60;;
4049;SDS011;2039;50.894;6.888;2023-03-14T17:30:49;69.20;;;5.47;;
4049;SDS011;2039;50.894;6.888;2023-03-14T17:33:15;78.57;;;6.05;;
4049;SDS011;2039;50.894;6.888;2023-03-14T17:35:42;68.40;;;5.18;;
4049;SDS011;2039;50.894;6.888;2023-03-14T17:38:08;72.28;;;4.35;;
4049;SDS011;2039;50.894;6.888;2023-03-14T17:43:18;86.65;;;5.10;;
4049;SDS011;2039;50.894;6.888;2023-03-14T17:45:58;75.32;;;5.40;;
4049;SDS011;2039;50.894;6.888;2023-03-14T17:48:25;71.72;;;4.93;;
4049;SDS011;2039;50.894;6.888;2023-03-14T17:50:51;69.22;;;6.30;;
4049;SDS011;2039;50.894;6.888;2023-03-14T17:53:17;68.67;;;5.83;;
4049;SDS011;2039;50.894;6.888;2023-03-14T17:55:42;76.60;;;6.73;;
4049;SDS011;2039;50.894;6.888;2023-03-14T17:58:09;70.53;;;6.82;;
4049;SDS011;2039;50.894;6.888;2023-03-14T18:00:36;67.03;;;4.70;;
4049;SDS011;2039;50.894;6.888;2023-03-14T18:03:03;70.78;;;5.75;;
4049;SDS011;2039;50.894;6.888;2023-03-14T18:05:28;76.18;;;5.50;;
4049;SDS011;2039;50.894;6.888;2023-03-14T18:07:54;68.43;;;4.83;;
4049;SDS011;2039;50.894;6.888;2023-03-14T18:10:23;71.70;;;6.20;;